Time;durP1;ratioP1;P1;durP2;ratioP2;P2;SDS_P1;SDS_P2;PMS_P1;PMS_P2;Temp;Humidity;BMP_temperature;BMP_pressure;BME280_temperature;BME280_humidity;BME280_pressure;Samples;Min_cycle;Max_cycle;Signal;HPM_P1;HPM_P2
2022/05/06 00:01:31;;;;;;;4.60;3.17;;;;;;;12.47;nan;101141.28;5027453;28;20112;-70
2022/05/06 00:03:57;;;;;;;5.60;3.45;;;;;;;12.46;nan;101154.69;5029023;28;20196;-70
2022/05/06 00:06:22;;;;;;;6.00;4.22;;;;;;;12.46;nan;101144.06;5028747;28;20631;-70
2022/05/06 00:08:47;;;;;;;4.68;3.53;;;;;;;12.45;nan;101143.25;5029707;28;20037;-71
2022/05/06 00:11:13;;;;;;;5.20;3.90;;;;;;;12.45;nan;101153.84;5031777;28;20038;-71
2022/05/06 00:13:38;;;;;;;5.90;4.13;;;;;;;12.47;nan;101141.28;5029381;28;20039;-70
2022/05/06 00:16:04;;;;;;;6.22;4.20;;;;;;;12.49;nan;101136.66;5031234;28;20045;-70
2022/05/06 00:18:31;;;;;;;4.93;3.55;;;;;;;12.51;nan;101137.34;5046572;28;20033;-71
2022/05/06 00:20:59;;;;;;;4.32;3.22;;;;;;;12.53;nan;101134.53;5029115;28;20053;-70
2022/05/06 00:23:25;;;;;;;5.53;3.35;;;;;;;12.56;nan;101136.03;5030552;28;20076;-70
2022/05/06 00:25:50;;;;;;;4.35;3.08;;;;;;;12.58;nan;101140.22;5030316;28;20087;-71
2022/05/06 00:28:15;;;;;;;4.95;3.00;;;;;;;12.61;nan;101139.06;5030327;28;20049;-70
2022/05/06 00:30:41;;;;;;;3.78;3.10;;;;;;;12.66;nan;101144.78;5031400;28;20041;-70
2022/05/06 00:33:09;;;;;;;3.92;2.90;;;;;;;12.67;nan;101141.16;5031027;28;20272;-70
2022/05/06 00:35:38;;;;;;;3.35;2.72;;;;;;;12.70;nan;101140.84;5030051;28;20053;-70
2022/05/06 00:38:03;;;;;;;3.15;2.55;;;;;;;12.68;nan;101146.31;5026134;28;20033;-69
2022/05/06 00:40:29;;;;;;;3.83;2.95;;;;;;;12.65;nan;101143.94;5028651;28;20171;-71
2022/05/06 00:42:56;;;;;;;4.50;3.42;;;;;;;12.66;nan;101147.44;5031515;28;20048;-69
2022/05/06 00:45:21;;;;;;;5.35;3.60;;;;;;;12.64;nan;101147.59;5028848;28;20567;-69
2022/05/06 00:47:47;;;;;;;6.20;3.80;;;;;;;12.67;nan;101144.63;5028319;28;20033;-71
2022/05/06 00:50:13;;;;;;;5.30;4.10;;;;;;;12.69;nan;101144.50;5028716;28;20037;-71
2022/05/06 00:52:39;;;;;;;5.07;3.83;;;;;;;12.68;nan;101151.63;5028803;28;20030;-71
2022/05/06 00:55:05;;;;;;;7.50;4.72;;;;;;;12.61;nan;101144.38;5029514;28;20069;-71
2022/05/06 00:57:31;;;;;;;7.05;5.13;;;;;;;12.55;nan;101145.84;5029487;28;20046;-71
2022/05/06 01:02:41;;;;;;;7.53;5.25;;;;;;;12.49;nan;101152.56;5028339;28;20111;-71
2022/05/06 01:05:09;;;;;;;8.07;5.57;;;;;;;12.50;nan;101138.31;5029135;28;20041;-71
2022/05/06 01:07:35;;;;;;;7.15;4.97;;;;;;;12.50;nan;101148.94;5028473;28;20057;-71
2022/05/06 01:10:01;;;;;;;6.55;5.13;;;;;;;12.51;nan;101141.78;5030114;28;20030;-71
2022/05/06 01:12:26;;;;;;;8.60;5.20;;;;;;;12.51;nan;101147.09;5030351;28;20041;-71
2022/05/06 01:14:51;;;;;;;7.03;5.20;;;;;;;12.52;nan;101143.47;5034673;28;20059;-71
2022/05/06 01:17:17;;;;;;;6.05;4.55;;;;;;;12.52;nan;101140.84;5032292;28;20057;-71
2022/05/06 01:19:43;;;;;;;5.18;3.80;;;;;;;12.52;nan;101139.00;5033544;28;20068;-71
2022/05/06 01:22:08;;;;;;;4.93;3.60;;;;;;;12.51;nan;101140.00;5034987;28;20033;-71
2022/05/06 01:24:33;;;;;;;7.18;4.80;;;;;;;12.49;nan;101149.91;5035603;28;20041;-71
2022/05/06 01:27:06;;;;;;;5.03;3.88;;;;;;;12.47;nan;101151.88;5033241;28;20486;-71
2022/05/06 01:29:32;;;;;;;7.53;4.60;;;;;;;12.44;nan;101160.16;5028257;28;20061;-71
2022/05/06 01:31:58;;;;;;;7.22;5.70;;;;;;;12.38;nan;101157.25;5031786;28;20547;-71
2022/05/06 01:34:27;;;;;;;6.65;4.88;;;;;;;12.35;nan;101154.88;5032896;28;20038;-71
2022/05/06 01:36:55;;;;;;;6.22;4.90;;;;;;;12.25;nan;101160.22;5034327;28;20038;-71
2022/05/06 01:39:26;;;;;;;8.63;6.03;;;;;;;12.24;nan;101162.06;5031318;28;20095;-71
2022/05/06 01:41:53;;;;;;;8.43;6.05;;;;;;;12.20;nan;101155.34;5031976;28;20033;-71
2022/05/06 01:44:21;;;;;;;7.53;5.60;;;;;;;12.18;nan;101151.19;5031002;28;20033;-71
2022/05/06 01:46:46;;;;;;;6.13;4.90;;;;;;;12.15;nan;101156.78;5034877;28;20056;-71
2022/05/06 01:49:14;;;;;;;7.88;5.55;;;;;;;12.12;nan;101157.94;5032835;28;20060;-71
2022/05/06 01:51:42;;;;;;;6.43;4.93;;;;;;;12.07;nan;101163.66;5030846;28;20394;-71
2022/05/06 01:54:08;;;;;;;7.00;4.60;;;;;;;12.06;nan;101166.44;5032192;28;20108;-71
2022/05/06 01:56:33;;;;;;;5.70;4.10;;;;;;;12.03;nan;101153.50;5033179;28;20117;-71
2022/05/06 01:58:58;;;;;;;4.43;3.47;;;;;;;12.01;nan;101158.97;5036981;28;20029;-71
2022/05/06 02:01:24;;;;;;;7.40;4.30;;;;;;;12.00;nan;101159.09;5032312;28;20128;-71
2022/05/06 02:06:33;;;;;;;6.15;5.20;;;;;;;11.91;nan;101158.13;5032879;28;20413;-71
2022/05/06 02:08:58;;;;;;;8.00;5.10;;;;;;;11.87;nan;101152.31;5031239;28;20038;-71
2022/05/06 02:11:24;;;;;;;6.72;4.93;;;;;;;11.85;nan;101148.09;5031535;28;21550;-71
2022/05/06 02:13:49;;;;;;;6.03;4.57;;;;;;;11.82;nan;101151.03;5031148;28;20034;-71
2022/05/06 02:16:16;;;;;;;6.93;5.28;;;;;;;11.78;nan;101147.00;5031716;28;20041;-71
2022/05/06 02:18:42;;;;;;;7.45;5.78;;;;;;;11.72;nan;101143.09;5030415;28;20091;-71
2022/05/06 02:21:07;;;;;;;6.35;4.70;;;;;;;11.72;nan;101144.94;5033044;28;20030;-71
2022/05/06 02:23:32;;;;;;;6.40;5.30;;;;;;;11.69;nan;101148.69;5031187;28;20386;-71
2022/05/06 02:25:58;;;;;;;8.88;6.53;;;;;;;11.64;nan;101146.47;5032125;28;20045;-71
2022/05/06 02:28:24;;;;;;;7.65;5.03;;;;;;;11.65;nan;101153.44;5027782;28;20109;-71
2022/05/06 02:33:33;;;;;;;7.68;5.43;;;;;;;11.59;nan;101146.09;5033267;28;20041;-71
2022/05/06 02:35:59;;;;;;;9.15;6.28;;;;;;;11.53;nan;101154.59;5031333;28;20482;-71
2022/05/06 02:38:27;;;;;;;7.03;5.63;;;;;;;11.52;nan;101160.88;5030666;28;20065;-71
2022/05/06 02:40:52;;;;;;;7.05;5.13;;;;;;;11.49;nan;101158.50;5032112;28;20076;-71
2022/05/06 02:43:18;;;;;;;5.05;4.32;;;;;;;11.60;nan;101162.81;5029245;28;20446;-71
2022/05/06 02:45:44;;;;;;;5.20;3.83;;;;;;;11.56;nan;101164.06;5034730;28;20037;-71
2022/05/06 02:48:10;;;;;;;5.80;4.90;;;;;;;11.49;nan;101161.16;5033018;28;20240;-71
2022/05/06 02:50:36;;;;;;;5.63;4.43;;;;;;;11.46;nan;101167.59;5030636;28;20417;-71
2022/05/06 02:53:02;;;;;;;7.57;5.45;;;;;;;11.43;nan;101161.72;5032184;28;20379;-71
2022/05/06 02:55:27;;;;;;;6.30;4.97;;;;;;;11.39;nan;101160.31;5032071;28;20049;-71
2022/05/06 02:57:53;;;;;;;8.88;5.95;;;;;;;11.36;nan;101160.63;5033335;28;20046;-71
2022/05/06 03:00:19;;;;;;;5.13;4.37;;;;;;;11.41;nan;101158.38;5028305;28;20558;-71
2022/05/06 03:02:45;;;;;;;5.32;4.30;;;;;;;11.37;nan;101163.13;5031565;28;20486;-71
2022/05/06 03:05:11;;;;;;;7.15;4.65;;;;;;;11.33;nan;101158.25;5031225;28;20061;-71
2022/05/06 03:07:36;;;;;;;5.53;4.22;;;;;;;11.31;nan;101165.50;5031412;28;20108;-71
2022/05/06 03:10:03;;;;;;;5.50;3.65;;;;;;;11.27;nan;101157.84;5031875;28;20281;-71
2022/05/06 03:12:29;;;;;;;5.65;4.22;;;;;;;11.21;nan;101160.22;5029027;28;20532;-71
2022/05/06 03:14:55;;;;;;;6.13;3.63;;;;;;;11.16;nan;101155.34;5032035;28;20025;-71
2022/05/06 03:17:21;;;;;;;6.32;4.63;;;;;;;11.10;nan;101160.34;5030756;28;20041;-71
2022/05/06 03:19:46;;;;;;;6.93;4.40;;;;;;;11.07;nan;101158.81;5032560;28;20087;-71
2022/05/06 03:22:13;;;;;;;5.05;3.88;;;;;;;11.05;nan;101168.72;5030365;28;20117;-71
2022/05/06 03:24:38;;;;;;;4.90;4.00;;;;;;;11.03;nan;101165.34;5029513;28;20105;-71
2022/05/06 03:27:04;;;;;;;4.03;3.40;;;;;;;11.02;nan;101167.19;5028257;28;20037;-71
2022/05/06 03:29:29;;;;;;;3.90;2.97;;;;;;;10.98;nan;101157.84;5031077;28;20471;-71
2022/05/06 03:31:56;;;;;;;5.57;4.97;;;;;;;10.94;nan;101163.53;5029652;28;20041;-71
2022/05/06 03:34:21;;;;;;;7.35;4.85;;;;;;;10.95;nan;101159.94;5030973;28;20061;-71
2022/05/06 03:36:47;;;;;;;8.77;6.20;;;;;;;10.97;nan;101158.00;5025951;28;20038;-70
2022/05/06 03:39:13;;;;;;;7.57;5.30;;;;;;;10.96;nan;101165.06;5030117;28;20255;-71
2022/05/06 03:41:38;;;;;;;7.63;5.20;;;;;;;10.95;nan;101162.59;5032127;28;20094;-70
2022/05/06 03:44:06;;;;;;;6.72;4.40;;;;;;;10.92;nan;101160.22;5031988;28;20322;-71
2022/05/06 03:46:32;;;;;;;4.55;3.85;;;;;;;10.89;nan;101163.13;5032526;28;20481;-71
2022/05/06 03:48:59;;;;;;;4.78;3.80;;;;;;;10.87;nan;101154.47;5031518;28;20064;-71
2022/05/06 03:51:25;;;;;;;6.45;4.40;;;;;;;10.90;nan;101155.06;5027561;28;20037;-71
2022/05/06 03:53:55;;;;;;;6.55;4.07;;;;;;;10.89;nan;101156.00;5032253;28;20033;-71
2022/05/06 03:56:24;;;;;;;5.78;3.70;;;;;;;10.88;nan;101157.00;5029238;28;20034;-71
2022/05/06 03:58:50;;;;;;;4.50;3.58;;;;;;;10.90;nan;101155.06;5027222;28;20132;-71
2022/05/06 04:01:17;;;;;;;7.20;4.10;;;;;;;10.93;nan;101160.06;5031467;28;20486;-71
2022/05/06 04:03:42;;;;;;;7.47;4.63;;;;;;;10.97;nan;101172.06;5031586;28;20041;-71
2022/05/06 04:06:08;;;;;;;8.30;5.10;;;;;;;10.93;nan;101172.47;5030352;28;20514;-71
2022/05/06 04:08:33;;;;;;;4.88;4.10;;;;;;;11.01;nan;101176.09;5031057;28;20064;-71
2022/05/06 04:10:59;;;;;;;5.53;4.20;;;;;;;11.09;nan;101175.41;5028710;28;20548;-71
2022/05/06 04:13:24;;;;;;;6.90;3.92;;;;;;;11.11;nan;101175.25;5012174;28;20057;-71
2022/05/06 04:15:50;;;;;;;5.70;3.78;;;;;;;11.19;nan;101178.88;5034224;28;20284;-71
2022/05/06 04:18:16;;;;;;;6.65;4.10;;;;;;;11.22;nan;101175.94;5034375;28;20038;-71
2022/05/06 04:23:31;;;;;;;5.50;3.53;;;;;;;11.29;nan;101178.03;5031004;28;20052;-71
2022/05/06 04:25:56;;;;;;;;;;;;;;;11.31;nan;101179.56;5031808;28;20456;-71
2022/05/06 04:28:23;;;;;;;5.63;3.88;;;;;;;11.37;nan;101180.81;5029414;28;20017;-71
2022/05/06 04:30:48;;;;;;;5.97;3.95;;;;;;;11.34;nan;101181.09;5025019;28;20053;-71
2022/05/06 04:33:14;;;;;;;5.65;3.53;;;;;;;11.33;nan;101182.91;5027371;28;20130;-71
2022/05/06 04:35:40;;;;;;;6.57;4.18;;;;;;;11.32;nan;101183.03;5030369;28;20037;-71
2022/05/06 04:38:05;;;;;;;5.28;4.05;;;;;;;11.34;nan;101191.69;5031634;28;20026;-71
2022/05/06 04:40:30;;;;;;;5.13;3.78;;;;;;;11.36;nan;101193.22;5030315;28;20040;-71
2022/05/06 04:42:56;;;;;;;6.38;3.85;;;;;;;11.43;nan;101191.69;5031196;28;20033;-71
2022/05/06 04:45:21;;;;;;;5.80;3.60;;;;;;;11.46;nan;101198.50;5030911;28;20042;-71
2022/05/06 04:47:47;;;;;;;6.10;4.18;;;;;;;11.46;nan;101203.81;5032128;28;20038;-71
2022/05/06 04:50:12;;;;;;;6.45;3.85;;;;;;;11.50;nan;101205.19;5034444;28;20441;-71
2022/05/06 04:52:37;;;;;;;5.18;3.97;;;;;;;11.49;nan;101203.53;5037369;28;20033;-71
2022/05/06 04:55:03;;;;;;;5.20;3.60;;;;;;;11.54;nan;101214.53;5036009;28;20121;-71
2022/05/06 04:57:28;;;;;;;6.40;4.25;;;;;;;11.55;nan;101208.25;5033583;28;20033;-71
2022/05/06 04:59:54;;;;;;;5.75;3.88;;;;;;;11.63;nan;101226.09;5036528;28;20490;-71
2022/05/06 05:02:20;;;;;;;5.22;3.42;;;;;;;11.65;nan;101217.00;5035527;28;20406;-71
2022/05/06 05:04:46;;;;;;;5.07;3.28;;;;;;;11.69;nan;101221.06;5035756;28;20065;-71
2022/05/06 05:07:12;;;;;;;5.22;3.50;;;;;;;11.74;nan;101223.28;5037136;28;20038;-71
2022/05/06 05:09:37;;;;;;;6.15;3.35;;;;;;;11.82;nan;101230.50;5039071;28;20038;-71
2022/05/06 05:12:03;;;;;;;4.25;3.50;;;;;;;11.87;nan;101228.34;5040883;28;20715;-71
2022/05/06 05:14:29;;;;;;;5.13;3.40;;;;;;;11.89;nan;101235.16;5037099;28;20037;-71
2022/05/06 05:16:54;;;;;;;7.78;4.47;;;;;;;11.80;nan;101232.50;5037465;28;20030;-71
2022/05/06 05:19:20;;;;;;;6.28;4.05;;;;;;;11.85;nan;101233.72;5035995;28;20034;-71
2022/05/06 05:21:47;;;;;;;5.05;3.45;;;;;;;11.90;nan;101236.81;5036324;28;20040;-71
2022/05/06 05:24:12;;;;;;;4.18;3.10;;;;;;;11.98;nan;101240.56;5036212;28;20080;-71
2022/05/06 05:26:38;;;;;;;4.32;2.92;;;;;;;12.06;nan;101238.03;5037798;28;20448;-71
2022/05/06 05:29:04;;;;;;;5.30;2.70;;;;;;;12.14;nan;101239.97;5033785;28;20041;-71
2022/05/06 05:31:30;;;;;;;4.20;3.03;;;;;;;12.17;nan;101235.19;5035679;28;20120;-71
2022/05/06 05:33:55;;;;;;;4.70;2.70;;;;;;;12.24;nan;101240.78;5037501;28;20044;-71
2022/05/06 05:36:20;;;;;;;4.22;3.05;;;;;;;12.24;nan;101238.94;5036701;28;20037;-71
2022/05/06 05:38:46;;;;;;;4.88;2.83;;;;;;;12.32;nan;101239.06;5036689;28;20072;-71
2022/05/06 05:41:11;;;;;;;4.65;3.30;;;;;;;12.37;nan;101241.28;5034168;28;20037;-71
2022/05/06 05:49:05;;;;;;;5.18;3.00;;;;;;;12.52;nan;101239.81;5034602;28;20039;-71
2022/05/06 05:51:32;;;;;;;4.80;3.10;;;;;;;12.53;nan;101244.13;5034617;28;20124;-71
2022/05/06 05:53:58;;;;;;;3.50;2.67;;;;;;;12.65;nan;101244.75;5036086;28;20457;-71
2022/05/06 05:56:23;;;;;;;4.93;3.00;;;;;;;12.70;nan;101244.31;5034699;28;20133;-71
2022/05/06 05:58:50;;;;;;;5.32;2.90;;;;;;;12.77;nan;101248.06;5035598;28;20065;-71
2022/05/06 06:01:15;;;;;;;3.63;2.72;;;;;;;12.87;nan;101253.31;5029767;28;20404;-71
2022/05/06 06:03:41;;;;;;;3.20;2.70;;;;;;;12.93;nan;101255.38;5032301;28;20030;-71
2022/05/06 06:06:06;;;;;;;7.00;3.53;;;;;;;12.95;nan;101256.06;5032461;28;20432;-71
2022/05/06 06:08:32;;;;;;;4.53;3.08;;;;;;;13.07;nan;101254.03;5033995;28;20034;-71
2022/05/06 06:11:01;;;;;;;5.60;3.55;;;;;;;13.15;nan;101254.09;5034863;28;20040;-71
2022/05/06 06:13:27;;;;;;;4.75;3.45;;;;;;;13.13;nan;101262.25;5027292;28;21316;-71
2022/05/06 06:15:52;;;;;;;3.88;2.58;;;;;;;13.21;nan;101258.81;5026736;28;20082;-71
2022/05/06 06:18:20;;;;;;;4.00;3.17;;;;;;;13.26;nan;101258.38;5033078;28;20073;-71
2022/05/06 06:20:45;;;;;;;4.57;2.95;;;;;;;13.30;nan;101260.63;5029675;28;20044;-71
2022/05/06 06:23:11;;;;;;;6.80;3.60;;;;;;;13.24;nan;101255.03;5032594;28;20033;-71
2022/05/06 06:25:36;;;;;;;5.13;3.35;;;;;;;13.18;nan;101253.81;5028371;28;20057;-70
2022/05/06 06:28:02;;;;;;;3.90;2.95;;;;;;;13.15;nan;101260.25;5027143;28;20064;-72
2022/05/06 06:30:28;;;;;;;5.22;2.40;;;;;;;13.21;nan;101260.66;5030770;28;20088;-73
2022/05/06 06:32:53;;;;;;;3.70;2.65;;;;;;;13.20;nan;101258.97;5028111;28;20038;-73
2022/05/06 06:35:19;;;;;;;4.40;3.30;;;;;;;13.17;nan;101260.09;5030134;28;20402;-73
2022/05/06 06:37:45;;;;;;;4.55;3.15;;;;;;;13.09;nan;101265.34;5025908;28;20517;-72
2022/05/06 06:40:10;;;;;;;4.78;3.67;;;;;;;13.04;nan;101265.78;5029925;28;20042;-73
2022/05/06 06:42:36;;;;;;;3.50;2.67;;;;;;;13.03;nan;101269.41;5031634;28;20522;-72
2022/05/06 06:45:02;;;;;;;6.63;3.20;;;;;;;13.05;nan;101272.75;5031741;28;20041;-72
2022/05/06 06:47:27;;;;;;;4.53;2.90;;;;;;;13.09;nan;101270.66;5031466;28;20518;-73
2022/05/06 06:49:52;;;;;;;4.07;2.78;;;;;;;13.09;nan;101273.31;5031886;28;20041;-72
2022/05/06 06:52:18;;;;;;;5.03;3.13;;;;;;;13.08;nan;101274.28;5028658;28;20117;-72
2022/05/06 06:54:43;;;;;;;4.15;2.88;;;;;;;13.07;nan;101264.66;5031082;28;20041;-73
2022/05/06 06:57:09;;;;;;;4.07;2.85;;;;;;;13.08;nan;101274.28;5029196;28;20037;-73
2022/05/06 06:59:34;;;;;;;4.93;3.28;;;;;;;13.05;nan;101285.22;5029063;28;20041;-72
2022/05/06 07:02:00;;;;;;;4.13;3.22;;;;;;;13.08;nan;101276.94;5026117;28;20568;-72
2022/05/06 07:04:26;;;;;;;5.97;3.13;;;;;;;13.16;nan;101282.34;5023043;28;20072;-72
2022/05/06 07:12:20;;;;;;;5.35;2.97;;;;;;;13.55;nan;101277.59;5027339;28;20518;-72
2022/05/06 07:14:45;;;;;;;3.92;2.70;;;;;;;13.68;nan;101279.88;5028331;28;20084;-72
2022/05/06 07:17:10;;;;;;;4.35;3.15;;;;;;;13.85;nan;101277.31;5031192;28;20062;-73
2022/05/06 07:19:36;;;;;;;5.45;3.30;;;;;;;14.15;nan;101282.19;5030980;28;20029;-72
2022/05/06 07:22:01;;;;;;;7.38;5.03;;;;;;;14.19;nan;101278.25;5031786;28;20394;-73
2022/05/06 07:24:26;;;;;;;7.57;4.90;;;;;;;14.21;nan;101280.75;5030291;28;20466;-72
2022/05/06 07:26:53;;;;;;;5.55;3.95;;;;;;;14.31;nan;101284.13;5028676;28;20033;-73
2022/05/06 07:29:19;;;;;;;7.50;4.72;;;;;;;14.45;nan;101282.72;5027016;28;20034;-72
2022/05/06 07:31:45;;;;;;;5.88;3.92;;;;;;;14.72;nan;101284.34;5031008;28;20507;-73
2022/05/06 07:34:11;;;;;;;7.60;3.78;;;;;;;15.10;nan;101281.31;5028568;28;20064;-73
2022/05/06 07:36:41;;;;;;;6.07;4.00;;;;;;;15.59;nan;101281.38;5030909;28;20502;-73
2022/05/06 07:39:10;;;;;;;6.65;3.40;;;;;;;16.02;nan;101282.91;5031548;28;20124;-73
2022/05/06 07:41:36;;;;;;;4.75;3.03;;;;;;;16.53;nan;101283.44;5030967;28;20414;-73
2022/05/06 07:44:01;;;;;;;4.32;2.80;;;;;;;16.99;nan;101280.06;5029398;28;20049;-73
2022/05/06 07:46:26;;;;;;;4.32;2.47;;;;;;;17.46;nan;101289.81;5030514;28;20055;-73
2022/05/06 07:48:52;;;;;;;;;;;;;;;17.90;nan;101283.81;5030421;28;20035;-73
2022/05/06 07:51:17;;;;;;;3.92;2.75;;;;;;;18.30;nan;101280.91;5030892;28;20433;-73
2022/05/06 07:53:43;;;;;;;3.47;2.40;;;;;;;18.81;nan;101276.47;5032825;28;20465;-74
2022/05/06 07:56:08;;;;;;;2.70;1.93;;;;;;;19.22;nan;101280.44;5029587;28;20411;-74
2022/05/06 07:58:34;;;;;;;;;;;;;;;19.46;nan;101282.72;5030679;28;20042;-74
2022/05/06 08:00:59;;;;;;;;;;;;;;;20.01;nan;101269.59;5027673;28;19936;-73
2022/05/06 08:06:08;;;;;;;4.32;2.63;;;;;;;20.86;nan;101285.59;5028225;28;20036;-74
2022/05/06 08:08:33;;;;;;;3.38;2.30;;;;;;;21.28;nan;101279.06;5030155;28;20401;-74
2022/05/06 08:10:59;;;;;;;2.78;1.70;;;;;;;22.04;nan;101286.78;5031315;28;20462;-74
2022/05/06 08:13:24;;;;;;;4.65;2.08;;;;;;;22.57;nan;101282.31;5030930;28;20168;-74
2022/05/06 08:15:51;;;;;;;4.78;2.40;;;;;;;22.73;nan;101283.72;5030375;28;20393;-74
2022/05/06 08:18:16;;;;;;;5.30;2.53;;;;;;;22.82;nan;101279.75;5028475;28;20040;-74
2022/05/06 08:20:42;;;;;;;3.15;2.25;;;;;;;23.02;nan;101274.28;5029691;28;20120;-74
2022/05/06 08:23:08;;;;;;;6.18;2.47;;;;;;;23.28;nan;101273.28;5030230;28;20106;-74
2022/05/06 08:25:34;;;;;;;4.47;2.70;;;;;;;23.68;nan;101275.72;5029199;28;20033;-74
2022/05/06 08:27:59;;;;;;;3.83;2.30;;;;;;;23.84;nan;101269.78;5029985;28;20368;-74
2022/05/06 08:30:25;;;;;;;3.17;1.80;;;;;;;24.42;nan;101278.56;5030393;28;20041;-74
2022/05/06 08:32:51;;;;;;;5.15;2.13;;;;;;;24.73;nan;101269.47;5030873;28;20033;-74
2022/05/06 08:35:16;;;;;;;3.67;2.00;;;;;;;24.93;nan;101272.75;5030024;28;20029;-74
2022/05/06 08:37:44;;;;;;;3.10;1.80;;;;;;;25.25;nan;101274.41;5033034;28;20041;-74
2022/05/06 08:40:30;;;;;;;4.10;2.38;;;;;;;25.15;nan;101267.66;5031303;28;20025;-75
2022/05/06 08:42:56;;;;;;;4.20;2.00;;;;;;;25.31;nan;101270.75;5032866;28;20056;-74
2022/05/06 08:50:55;;;;;;;2.60;1.80;;;;;;;25.55;nan;101274.34;5031291;28;20051;-74
2022/05/06 08:53:24;;;;;;;4.00;1.53;;;;;;;25.06;nan;101269.03;5030412;28;20045;-74
2022/05/06 08:55:51;;;;;;;2.20;1.30;;;;;;;24.67;nan;101275.78;5024579;28;20034;-74
2022/05/06 08:58:17;;;;;;;3.30;1.63;;;;;;;23.82;nan;101279.16;5029827;28;20038;-74
2022/05/06 09:00:42;;;;;;;3.25;1.67;;;;;;;23.69;nan;101278.19;5026995;28;20091;-75
2022/05/06 09:03:07;;;;;;;2.78;1.40;;;;;;;24.03;nan;101277.94;5029113;28;20058;-73
2022/05/06 09:05:47;;;;;;;3.47;1.42;;;;;;;24.70;nan;101275.34;5024466;28;20501;-74
2022/05/06 09:08:13;;;;;;;1.98;1.23;;;;;;;25.18;nan;101272.63;5027940;28;20045;-74
2022/05/06 09:10:38;;;;;;;1.98;1.10;;;;;;;25.88;nan;101275.72;5028800;28;20044;-73
2022/05/06 09:13:03;;;;;;;2.45;1.20;;;;;;;26.46;nan;101277.56;5028625;28;20393;-74
2022/05/06 09:18:22;;;;;;;3.35;1.45;;;;;;;26.34;nan;101283.00;5024686;28;20064;-74
2022/05/06 09:20:49;;;;;;;2.17;1.13;;;;;;;26.57;nan;101265.84;5027095;28;20033;-74
2022/05/06 09:23:25;;;;;;;2.22;1.10;;;;;;;27.14;nan;101269.66;5028152;28;20042;-74
2022/05/06 09:25:55;;;;;;;2.25;1.27;;;;;;;27.78;nan;101277.53;5026257;28;20043;-74
2022/05/06 09:28:22;;;;;;;2.33;1.20;;;;;;;28.23;nan;101269.25;5026844;28;20034;-74
2022/05/06 09:31:04;;;;;;;2.47;1.30;;;;;;;28.26;nan;101268.72;5026844;28;20443;-74
2022/05/06 09:33:32;;;;;;;2.60;1.40;;;;;;;28.05;nan;101278.50;5030680;28;20190;-74
2022/05/06 09:35:58;;;;;;;1.75;1.00;;;;;;;27.54;nan;101264.13;5031330;28;20437;-74
2022/05/06 09:38:29;;;;;;;3.28;1.30;;;;;;;27.57;nan;101270.94;5031939;28;20037;-74
2022/05/06 09:40:55;;;;;;;2.17;1.00;;;;;;;27.44;nan;101281.06;5031178;28;20449;-74
2022/05/06 09:43:20;;;;;;;2.22;1.17;;;;;;;28.00;nan;101283.06;5031801;28;20041;-75
2022/05/06 09:45:46;;;;;;;1.50;0.85;;;;;;;28.93;nan;101277.72;5031252;28;20033;-74
2022/05/06 09:48:13;;;;;;;2.90;1.10;;;;;;;29.18;nan;101274.47;5025435;28;20040;-75
2022/05/06 09:50:39;;;;;;;2.55;1.10;;;;;;;28.97;nan;101276.94;5033316;28;20042;-74
2022/05/06 09:53:11;;;;;;;2.13;1.30;;;;;;;28.75;nan;101278.91;5029659;28;20041;-75
2022/05/06 09:55:41;;;;;;;2.45;1.15;;;;;;;28.50;nan;101271.25;5030916;28;20094;-73
2022/05/06 09:58:08;;;;;;;2.20;0.93;;;;;;;29.28;nan;101271.84;5029436;28;20029;-75
2022/05/06 10:00:33;;;;;;;2.58;1.20;;;;;;;29.20;nan;101275.03;5023945;28;20531;-74
2022/05/06 10:03:00;;;;;;;2.40;1.17;;;;;;;28.51;nan;101276.44;5030961;28;20042;-74
2022/05/06 10:05:28;;;;;;;1.33;0.90;;;;;;;28.49;nan;101273.16;5029736;28;20065;-74
2022/05/06 10:08:00;;;;;;;2.17;0.80;;;;;;;28.86;nan;101269.75;5030423;28;20417;-75
2022/05/06 10:10:34;;;;;;;2.20;0.98;;;;;;;28.90;nan;101262.72;5028521;28;20079;-74
2022/05/06 10:13:04;;;;;;;2.15;1.00;;;;;;;28.75;nan;101273.47;5029636;28;20060;-74
2022/05/06 10:15:32;;;;;;;2.08;0.88;;;;;;;29.39;nan;101273.56;5028801;28;20048;-74
2022/05/06 10:17:59;;;;;;;1.45;0.90;;;;;;;29.92;nan;101267.44;5031199;28;20034;-74
2022/05/06 10:20:37;;;;;;;2.22;0.90;;;;;;;30.06;nan;101268.63;5026664;28;20060;-74
2022/05/06 10:23:11;;;;;;;2.10;0.98;;;;;;;30.26;nan;101265.19;5027407;28;20059;-75
2022/05/06 10:25:40;;;;;;;3.45;1.02;;;;;;;30.60;nan;101257.41;5030440;28;20091;-75
2022/05/06 10:34:17;;;;;;;2.55;0.80;;;;;;;31.21;nan;101258.66;5028249;28;20480;-74
2022/05/06 10:36:47;;;;;;;1.67;0.93;;;;;;;30.79;nan;101262.38;5028293;28;20061;-74
2022/05/06 10:39:30;;;;;;;2.35;1.00;;;;;;;30.62;nan;101263.41;5027977;28;20046;-74
2022/05/06 10:42:02;;;;;;;1.67;0.90;;;;;;;30.94;nan;101246.06;5029311;28;20060;-74
2022/05/06 10:44:41;;;;;;;2.08;0.90;;;;;;;31.93;nan;101252.03;5028762;28;20044;-74
2022/05/06 10:47:13;;;;;;;3.42;1.10;;;;;;;31.70;nan;101258.94;5031930;28;20033;-74
2022/05/06 10:49:38;;;;;;;1.50;0.95;;;;;;;31.87;nan;101246.84;5029352;28;20033;-74
2022/05/06 10:52:15;;;;;;;2.07;1.17;;;;;;;31.52;nan;101241.19;5028290;28;20583;-74
2022/05/06 10:54:48;;;;;;;2.65;0.80;;;;;;;31.81;nan;101243.31;5030394;28;20276;-74
2022/05/06 10:57:18;;;;;;;1.77;0.90;;;;;;;31.71;nan;101235.13;5028021;28;20115;-74
2022/05/06 10:59:52;;;;;;;2.70;1.08;;;;;;;31.31;nan;101228.59;5029356;28;20682;-73
2022/05/06 11:02:21;;;;;;;1.35;0.80;;;;;;;31.94;nan;101236.44;5028933;28;20041;-74
2022/05/06 11:05:07;;;;;;;0.93;0.63;;;;;;;32.64;nan;101231.00;5032195;28;20502;-72
2022/05/06 11:07:34;;;;;;;1.75;0.80;;;;;;;33.24;nan;101228.13;5028197;28;20048;-72
2022/05/06 11:10:16;;;;;;;1.05;0.63;;;;;;;34.16;nan;101243.69;5032207;28;20345;-72
2022/05/06 11:12:50;;;;;;;1.98;0.80;;;;;;;31.45;nan;101229.69;5028102;28;20076;-72
2022/05/06 11:15:21;;;;;;;2.42;0.90;;;;;;;31.48;nan;101229.13;5026978;28;20390;-72
2022/05/06 11:17:48;;;;;;;1.92;0.88;;;;;;;32.01;nan;101227.97;5026205;28;20034;-72
2022/05/06 11:20:22;;;;;;;2.17;0.80;;;;;;;33.59;nan;101226.19;5027434;28;20041;-75
2022/05/06 11:22:52;;;;;;;1.67;0.77;;;;;;;33.35;nan;101229.69;5041445;28;20033;-72
2022/05/06 11:25:17;;;;;;;3.30;1.13;;;;;;;33.71;nan;101229.34;5024158;28;20045;-73
2022/05/06 11:27:43;;;;;;;0.77;0.70;;;;;;;34.43;nan;101234.81;5027432;28;20418;-72
2022/05/06 11:30:13;;;;;;;2.88;0.90;;;;;;;34.54;nan;101221.78;5029836;28;21040;-72
2022/05/06 11:32:45;;;;;;;;;;;;;;;34.47;nan;101221.34;5029699;28;20040;-73
2022/05/06 11:35:13;;;;;;;1.15;0.70;;;;;;;33.81;nan;101211.97;5024920;28;20324;-73
2022/05/06 11:37:40;;;;;;;2.15;0.98;;;;;;;32.23;nan;101209.28;5025481;28;20045;-72
2022/05/06 11:40:52;;;;;;;2.72;0.95;;;;;;;33.27;nan;101208.34;5027501;28;20083;-72
2022/05/06 11:42:53;;;;;;;2.45;0.80;;;;;;;34.25;nan;101205.41;5020747;28;20379;-72
2022/05/06 11:48:11;;;;;;;1.63;0.80;;;;;;;32.30;nan;101207.06;5024572;28;20040;-72
2022/05/06 11:50:38;;;;;;;1.48;0.90;;;;;;;30.21;nan;101199.66;5027824;28;20037;-74
2022/05/06 11:53:10;;;;;;;3.80;1.20;;;;;;;29.99;nan;101202.59;5025906;28;20045;-72
2022/05/06 11:55:37;;;;;;;2.15;1.08;;;;;;;31.50;nan;101202.34;5027917;28;20041;-72
2022/05/06 11:58:07;;;;;;;2.13;0.70;;;;;;;32.29;nan;101204.59;5025872;28;20141;-71
2022/05/06 12:00:34;;;;;;;2.05;1.00;;;;;;;34.05;nan;101206.47;5028018;28;20041;-72
2022/05/06 12:03:12;;;;;;;2.05;0.90;;;;;;;34.87;nan;101200.72;5024715;28;20502;-71
2022/05/06 12:05:38;;;;;;;2.55;0.93;;;;;;;34.75;nan;101203.06;5029263;28;20076;-72
2022/05/06 12:08:05;;;;;;;2.03;0.90;;;;;;;34.88;nan;101205.06;5025361;28;20048;-72
2022/05/06 12:10:33;;;;;;;2.97;0.90;;;;;;;33.53;nan;101202.63;5026166;28;20279;-74
2022/05/06 12:12:59;;;;;;;1.15;0.70;;;;;;;31.41;nan;101197.72;5026277;28;20033;-73
2022/05/06 12:15:37;;;;;;;1.67;0.88;;;;;;;30.34;nan;101193.72;5024763;28;20049;-73
2022/05/06 12:18:02;;;;;;;1.58;0.90;;;;;;;30.22;nan;101193.97;5020594;28;20030;-73
2022/05/06 12:20:34;;;;;;;2.22;1.00;;;;;;;30.18;nan;101184.66;5025614;28;20332;-74
2022/05/06 12:23:00;;;;;;;2.20;0.85;;;;;;;30.50;nan;101188.34;5025366;28;20037;-73
2022/05/06 12:25:26;;;;;;;1.30;0.80;;;;;;;30.08;nan;101187.31;5021831;28;20409;-73